sensor_id;sensor_type;location;lat;lon;timestamp;pressure;altitude;pressure_sealevel;temperature;humidity
4024;BME280;2026;51.002;13.668;2024-01-27T00:03:17;100229.50;;;3.27;73.55
4024;BME280;2026;51.002;13.668;2024-01-27T00:08:20;100234.88;;;3.14;74.48
4024;BME280;2026;51.002;13.668;2024-01-27T00:13:24;100226.19;;;3.25;73.16
4024;BME280;2026;51.002;13.668;2024-01-27T00:18:27;100233.25;;;3.34;72.68
4024;BME280;2026;51.002;13.668;2024-01-27T00:23:30;100230.34;;;3.16;72.59
4024;BME280;2026;51.002;13.668;2024-01-27T00:28:35;100230.00;;;3.21;72.76
4024;BME280;2026;51.002;13.668;2024-01-27T00:33:38;100250.22;;;3.07;73.79
4024;BME280;2026;51.002;13.668;2024-01-27T00:38:41;100267.53;;;3.20;73.67
4024;BME280;2026;51.002;13.668;2024-01-27T00:43:45;100269.91;;;3.11;74.04
4024;BME280;2026;51.002;13.668;2024-01-27T00:48:48;100271.66;;;3.11;74.36
4024;BME280;2026;51.002;13.668;2024-01-27T00:53:51;100282.00;;;3.01;74.28
4024;BME280;2026;51.002;13.668;2024-01-27T00:58:56;100283.09;;;2.99;73.81
4024;BME280;2026;51.002;13.668;2024-01-27T01:03:59;100279.22;;;2.93;74.10
4024;BME280;2026;51.002;13.668;2024-01-27T01:09:02;100296.63;;;2.92;74.29
4024;BME280;2026;51.002;13.668;2024-01-27T01:14:07;100295.56;;;2.95;74.52
4024;BME280;2026;51.002;13.668;2024-01-27T01:19:10;100310.66;;;2.91;74.86
4024;BME280;2026;51.002;13.668;2024-01-27T01:24:13;100316.81;;;2.79;75.35
4024;BME280;2026;51.002;13.668;2024-01-27T01:29:17;100315.41;;;2.75;75.12
4024;BME280;2026;51.002;13.668;2024-01-27T01:34:20;100329.50;;;2.84;74.90
4024;BME280;2026;51.002;13.668;2024-01-27T01:39:23;100321.31;;;2.88;74.45
4024;BME280;2026;51.002;13.668;2024-01-27T01:44:30;100328.31;;;2.65;75.21
4024;BME280;2026;51.002;13.668;2024-01-27T01:49:33;100334.25;;;2.79;73.49
4024;BME280;2026;51.002;13.668;2024-01-27T01:54:37;100336.97;;;2.77;73.14
4024;BME280;2026;51.002;13.668;2024-01-27T01:59:41;100341.13;;;2.80;72.32
4024;BME280;2026;51.002;13.668;2024-01-27T02:04:45;100341.25;;;2.78;72.52
4024;BME280;2026;51.002;13.668;2024-01-27T02:09:48;100333.44;;;2.67;72.71
4024;BME280;2026;51.002;13.668;2024-01-27T02:14:52;100334.00;;;2.70;72.37
4024;BME280;2026;51.002;13.668;2024-01-27T02:19:55;100342.41;;;2.63;71.87
4024;BME280;2026;51.002;13.668;2024-01-27T02:25:00;100346.47;;;2.67;71.15
4024;BME280;2026;51.002;13.668;2024-01-27T02:30:03;100350.59;;;2.58;71.39
4024;BME280;2026;51.002;13.668;2024-01-27T02:35:07;100346.94;;;2.61;71.28
4024;BME280;2026;51.002;13.668;2024-01-27T02:40:12;100343.63;;;2.58;71.21
4024;BME280;2026;51.002;13.668;2024-01-27T02:45:16;100347.72;;;2.50;71.04
4024;BME280;2026;51.002;13.668;2024-01-27T02:50:19;100362.91;;;2.45;71.39
4024;BME280;2026;51.002;13.668;2024-01-27T02:55:23;100364.56;;;2.46;71.14
4024;BME280;2026;51.002;13.668;2024-01-27T03:00:26;100378.06;;;2.39;71.39
4024;BME280;2026;51.002;13.668;2024-01-27T03:05:29;100363.97;;;2.42;71.17
4024;BME280;2026;51.002;13.668;2024-01-27T03:10:33;100376.16;;;2.30;70.81
4024;BME280;2026;51.002;13.668;2024-01-27T03:15:36;100390.41;;;2.37;70.68
4024;BME280;2026;51.002;13.668;2024-01-27T03:20:40;100401.66;;;2.38;70.30
4024;BME280;2026;51.002;13.668;2024-01-27T03:25:44;100399.88;;;2.27;70.55
4024;BME280;2026;51.002;13.668;2024-01-27T03:30:48;100408.13;;;2.21;70.85
4024;BME280;2026;51.002;13.668;2024-01-27T03:35:50;100406.50;;;2.31;70.45
4024;BME280;2026;51.002;13.668;2024-01-27T03:40:55;100403.19;;;2.29;70.55
4024;BME280;2026;51.002;13.668;2024-01-27T03:45:58;100416.44;;;2.26;70.41
4024;BME280;2026;51.002;13.668;2024-01-27T03:51:01;100430.56;;;2.35;70.04
4024;BME280;2026;51.002;13.668;2024-01-27T03:56:06;100443.22;;;2.28;70.59
4024;BME280;2026;51.002;13.668;2024-01-27T04:01:09;100433.06;;;2.36;70.25
4024;BME280;2026;51.002;13.668;2024-01-27T04:06:12;100454.91;;;2.35;69.98
4024;BME280;2026;51.002;13.668;2024-01-27T04:11:22;100452.72;;;2.29;69.50
4024;BME280;2026;51.002;13.668;2024-01-27T04:16:25;100446.97;;;2.37;69.57
4024;BME280;2026;51.002;13.668;2024-01-27T04:21:28;100456.75;;;2.33;69.87
4024;BME280;2026;51.002;13.668;2024-01-27T04:26:33;100456.84;;;2.20;70.39
4024;BME280;2026;51.002;13.668;2024-01-27T04:31:39;100456.75;;;2.22;70.55
4024;BME280;2026;51.002;13.668;2024-01-27T04:36:42;100468.28;;;2.31;70.12
4024;BME280;2026;51.002;13.668;2024-01-27T04:41:46;100463.09;;;2.18;70.61
4024;BME280;2026;51.002;13.668;2024-01-27T04:46:49;100466.09;;;2.25;70.73
4024;BME280;2026;51.002;13.668;2024-01-27T04:51:52;100475.81;;;2.22;70.88
4024;BME280;2026;51.002;13.668;2024-01-27T04:56:56;100468.53;;;2.15;71.16
4024;BME280;2026;51.002;13.668;2024-01-27T05:01:59;100468.66;;;2.13;71.12
4024;BME280;2026;51.002;13.668;2024-01-27T05:07:02;100474.88;;;2.24;70.56
4024;BME280;2026;51.002;13.668;2024-01-27T05:12:07;100463.78;;;2.09;70.62
4024;BME280;2026;51.002;13.668;2024-01-27T05:17:10;100478.88;;;1.92;71.43
4024;BME280;2026;51.002;13.668;2024-01-27T05:22:13;100482.16;;;2.07;71.24
4024;BME280;2026;51.002;13.668;2024-01-27T05:27:17;100485.28;;;1.99;71.77
4024;BME280;2026;51.002;13.668;2024-01-27T05:32:20;100487.34;;;2.07;71.64
4024;BME280;2026;51.002;13.668;2024-01-27T05:37:23;100500.94;;;1.99;71.89
4024;BME280;2026;51.002;13.668;2024-01-27T05:42:28;100504.53;;;2.10;71.90
4024;BME280;2026;51.002;13.668;2024-01-27T05:47:31;100505.53;;;2.20;70.88
4024;BME280;2026;51.002;13.668;2024-01-27T05:52:34;100514.53;;;2.16;71.53
4024;BME280;2026;51.002;13.668;2024-01-27T05:57:38;100518.84;;;2.28;71.35
4024;BME280;2026;51.002;13.668;2024-01-27T06:02:41;100534.97;;;2.22;71.41
4024;BME280;2026;51.002;13.668;2024-01-27T06:07:44;100528.56;;;2.26;71.50
4024;BME280;2026;51.002;13.668;2024-01-27T06:12:50;100537.22;;;2.27;71.39
4024;BME280;2026;51.002;13.668;2024-01-27T06:17:53;100527.31;;;2.32;70.98
4024;BME280;2026;51.002;13.668;2024-01-27T06:22:57;100550.53;;;2.35;71.26
4024;BME280;2026;51.002;13.668;2024-01-27T06:28:01;100550.44;;;2.36;71.24
4024;BME280;2026;51.002;13.668;2024-01-27T06:33:04;100553.91;;;2.37;71.21
4024;BME280;2026;51.002;13.668;2024-01-27T06:38:07;100556.72;;;2.34;71.22
4024;BME280;2026;51.002;13.668;2024-01-27T06:43:13;100557.34;;;2.37;71.29
4024;BME280;2026;51.002;13.668;2024-01-27T06:48:16;100566.94;;;2.37;71.13
4024;BME280;2026;51.002;13.668;2024-01-27T06:53:19;100576.91;;;2.43;71.08
4024;BME280;2026;51.002;13.668;2024-01-27T06:58:23;100586.53;;;2.43;70.94
4024;BME280;2026;51.002;13.668;2024-01-27T07:03:26;100598.72;;;2.55;70.68
4024;BME280;2026;51.002;13.668;2024-01-27T07:08:29;100603.69;;;2.58;70.48
4024;BME280;2026;51.002;13.668;2024-01-27T07:13:40;100618.50;;;2.57;70.43
4024;BME280;2026;51.002;13.668;2024-01-27T07:18:43;100619.13;;;2.61;70.72
4024;BME280;2026;51.002;13.668;2024-01-27T07:23:47;100623.19;;;2.65;70.58
4024;BME280;2026;51.002;13.668;2024-01-27T07:28:51;100633.41;;;2.68;70.82
4024;BME280;2026;51.002;13.668;2024-01-27T07:33:54;100637.28;;;2.63;70.48
4024;BME280;2026;51.002;13.668;2024-01-27T07:38:57;100630.69;;;2.70;70.53
4024;BME280;2026;51.002;13.668;2024-01-27T07:44:08;100638.84;;;2.65;70.64
4024;BME280;2026;51.002;13.668;2024-01-27T07:49:11;100632.41;;;2.82;70.89
4024;BME280;2026;51.002;13.668;2024-01-27T07:54:16;100640.00;;;2.85;71.11
4024;BME280;2026;51.002;13.668;2024-01-27T07:59:20;100639.56;;;2.91;70.54
4024;BME280;2026;51.002;13.668;2024-01-27T08:04:23;100651.41;;;3.08;70.16
4024;BME280;2026;51.002;13.668;2024-01-27T08:09:26;100641.44;;;2.89;71.45
4024;BME280;2026;51.002;13.668;2024-01-27T08:14:31;100653.19;;;2.84;70.77
4024;BME280;2026;51.002;13.668;2024-01-27T08:19:34;100651.19;;;3.11;70.35
4024;BME280;2026;51.002;13.668;2024-01-27T08:24:37;100657.34;;;3.10;70.50
4024;BME280;2026;51.002;13.668;2024-01-27T08:29:42;100659.50;;;3.17;71.29
4024;BME280;2026;51.002;13.668;2024-01-27T08:34:45;100671.97;;;3.24;70.53
4024;BME280;2026;51.002;13.668;2024-01-27T08:39:49;100670.81;;;3.28;70.27
4024;BME280;2026;51.002;13.668;2024-01-27T08:44:54;100672.25;;;3.32;71.83
4024;BME280;2026;51.002;13.668;2024-01-27T08:49:57;100686.88;;;3.35;70.12
4024;BME280;2026;51.002;13.668;2024-01-27T08:55:01;100708.69;;;3.23;70.07
4024;BME280;2026;51.002;13.668;2024-01-27T09:00:06;100715.50;;;3.37;69.94
4024;BME280;2026;51.002;13.668;2024-01-27T09:05:11;100723.72;;;3.19;70.74
4024;BME280;2026;51.002;13.668;2024-01-27T09:10:14;100719.75;;;3.26;70.18
4024;BME280;2026;51.002;13.668;2024-01-27T09:15:18;100727.06;;;3.21;70.19
4024;BME280;2026;51.002;13.668;2024-01-27T09:20:22;100731.34;;;3.22;70.44
4024;BME280;2026;51.002;13.668;2024-01-27T09:25:25;100736.41;;;3.72;69.47
4024;BME280;2026;51.002;13.668;2024-01-27T09:30:31;100752.94;;;3.73;69.21
4024;BME280;2026;51.002;13.668;2024-01-27T09:35:38;100742.16;;;3.88;68.84
4024;BME280;2026;51.002;13.668;2024-01-27T09:40:41;100741.84;;;3.69;69.24
4024;BME280;2026;51.002;13.668;2024-01-27T09:45:45;100738.84;;;3.62;69.67
4024;BME280;2026;51.002;13.668;2024-01-27T09:50:51;100747.78;;;4.06;68.70
4024;BME280;2026;51.002;13.668;2024-01-27T09:55:56;100747.06;;;4.04;68.37
4024;BME280;2026;51.002;13.668;2024-01-27T10:01:02;100745.03;;;3.97;69.02
4024;BME280;2026;51.002;13.668;2024-01-27T10:06:08;100759.06;;;4.07;68.21
4024;BME280;2026;51.002;13.668;2024-01-27T10:11:13;100747.78;;;4.18;68.99
4024;BME280;2026;51.002;13.668;2024-01-27T10:16:18;100743.16;;;4.21;68.52
4024;BME280;2026;51.002;13.668;2024-01-27T10:21:21;100741.38;;;4.33;67.70
4024;BME280;2026;51.002;13.668;2024-01-27T10:26:26;100736.13;;;3.99;68.83
4024;BME280;2026;51.002;13.668;2024-01-27T10:31:34;100756.38;;;3.73;69.69
4024;BME280;2026;51.002;13.668;2024-01-27T10:36:39;100751.47;;;4.15;68.55
4024;BME280;2026;51.002;13.668;2024-01-27T10:41:45;100749.56;;;4.06;68.87
4024;BME280;2026;51.002;13.668;2024-01-27T10:46:49;100761.59;;;4.20;68.24
4024;BME280;2026;51.002;13.668;2024-01-27T10:51:54;100773.38;;;4.14;68.56
4024;BME280;2026;51.002;13.668;2024-01-27T10:56:59;100755.44;;;4.32;68.32
4024;BME280;2026;51.002;13.668;2024-01-27T11:02:08;100759.84;;;4.54;68.52
4024;BME280;2026;51.002;13.668;2024-01-27T11:07:15;100759.13;;;4.64;67.69
4024;BME280;2026;51.002;13.668;2024-01-27T11:12:19;100764.81;;;4.35;68.31
4024;BME280;2026;51.002;13.668;2024-01-27T11:17:25;100766.72;;;4.78;68.12
4024;BME280;2026;51.002;13.668;2024-01-27T11:22:28;100750.56;;;4.50;68.82
4024;BME280;2026;51.002;13.668;2024-01-27T11:27:32;100769.81;;;4.49;67.97
4024;BME280;2026;51.002;13.668;2024-01-27T11:32:37;100780.25;;;4.27;68.73
4024;BME280;2026;51.002;13.668;2024-01-27T11:37:40;100778.13;;;4.20;69.46
4024;BME280;2026;51.002;13.668;2024-01-27T11:42:54;100786.59;;;4.35;69.06
4024;BME280;2026;51.002;13.668;2024-01-27T11:48:00;100760.53;;;4.45;68.15
4024;BME280;2026;51.002;13.668;2024-01-27T11:53:04;100770.66;;;4.61;67.51
4024;BME280;2026;51.002;13.668;2024-01-27T11:58:11;100763.38;;;4.53;67.83
4024;BME280;2026;51.002;13.668;2024-01-27T12:03:15;100768.63;;;4.53;68.30
4024;BME280;2026;51.002;13.668;2024-01-27T12:08:19;100763.50;;;4.97;66.58
4024;BME280;2026;51.002;13.668;2024-01-27T12:13:22;100772.16;;;5.09;66.07
4024;BME280;2026;51.002;13.668;2024-01-27T12:18:27;100767.38;;;5.14;65.40
4024;BME280;2026;51.002;13.668;2024-01-27T12:23:31;100774.13;;;5.28;64.82
4024;BME280;2026;51.002;13.668;2024-01-27T12:28:34;100772.53;;;5.48;63.66
4024;BME280;2026;51.002;13.668;2024-01-27T12:33:40;100786.97;;;5.42;63.14
4024;BME280;2026;51.002;13.668;2024-01-27T12:38:47;100777.94;;;5.35;63.80
4024;BME280;2026;51.002;13.668;2024-01-27T12:43:50;100791.22;;;5.54;62.37
4024;BME280;2026;51.002;13.668;2024-01-27T12:48:54;100795.19;;;5.70;62.45
4024;BME280;2026;51.002;13.668;2024-01-27T12:53:57;100791.03;;;5.35;62.79
4024;BME280;2026;51.002;13.668;2024-01-27T12:59:00;100795.31;;;5.36;63.49
4024;BME280;2026;51.002;13.668;2024-01-27T13:04:05;100790.50;;;5.52;62.40
4024;BME280;2026;51.002;13.668;2024-01-27T13:09:08;100781.72;;;5.75;61.08
4024;BME280;2026;51.002;13.668;2024-01-27T13:14:14;100782.50;;;5.54;61.77
4024;BME280;2026;51.002;13.668;2024-01-27T13:19:20;100798.34;;;5.52;61.75
4024;BME280;2026;51.002;13.668;2024-01-27T13:24:23;100802.06;;;5.50;61.95
4024;BME280;2026;51.002;13.668;2024-01-27T13:29:27;100798.44;;;5.30;62.54
4024;BME280;2026;51.002;13.668;2024-01-27T13:34:32;100793.09;;;5.20;62.14
4024;BME280;2026;51.002;13.668;2024-01-27T13:39:35;100804.28;;;5.22;62.96
4024;BME280;2026;51.002;13.668;2024-01-27T13:44:39;100802.09;;;5.39;63.23
4024;BME280;2026;51.002;13.668;2024-01-27T13:49:43;100803.81;;;5.28;63.07
4024;BME280;2026;51.002;13.668;2024-01-27T13:54:47;100807.50;;;5.26;63.33
4024;BME280;2026;51.002;13.668;2024-01-27T13:59:51;100795.25;;;5.15;63.44
4024;BME280;2026;51.002;13.668;2024-01-27T14:04:56;100802.16;;;5.05;63.61
4024;BME280;2026;51.002;13.668;2024-01-27T14:09:59;100793.56;;;5.14;63.48
4024;BME280;2026;51.002;13.668;2024-01-27T14:15:04;100799.19;;;5.09;63.77
4024;BME280;2026;51.002;13.668;2024-01-27T14:20:11;100795.84;;;5.18;63.72
4024;BME280;2026;51.002;13.668;2024-01-27T14:25:15;100799.50;;;5.27;63.50
4024;BME280;2026;51.002;13.668;2024-01-27T14:30:18;100801.44;;;5.14;64.30
4024;BME280;2026;51.002;13.668;2024-01-27T14:35:22;100804.31;;;5.11;65.10
4024;BME280;2026;51.002;13.668;2024-01-27T14:40:26;100796.84;;;4.95;64.24
4024;BME280;2026;51.002;13.668;2024-01-27T14:45:29;100811.47;;;5.09;64.27
4024;BME280;2026;51.002;13.668;2024-01-27T14:50:34;100817.16;;;5.14;64.83
4024;BME280;2026;51.002;13.668;2024-01-27T14:55:37;100820.13;;;5.21;64.49
4024;BME280;2026;51.002;13.668;2024-01-27T15:00:39;100827.53;;;5.15;64.10
4024;BME280;2026;51.002;13.668;2024-01-27T15:05:44;100831.72;;;4.95;64.43
4024;BME280;2026;51.002;13.668;2024-01-27T15:10:47;100840.03;;;5.01;65.03
4024;BME280;2026;51.002;13.668;2024-01-27T15:15:50;100847.31;;;4.74;65.67
4024;BME280;2026;51.002;13.668;2024-01-27T15:20:55;100849.56;;;4.79;65.34
4024;BME280;2026;51.002;13.668;2024-01-27T15:25:58;100854.44;;;4.61;65.85
4024;BME280;2026;51.002;13.668;2024-01-27T15:31:03;100848.81;;;4.54;66.17
4024;BME280;2026;51.002;13.668;2024-01-27T15:36:08;100860.03;;;4.68;65.66
4024;BME280;2026;51.002;13.668;2024-01-27T15:41:11;100875.72;;;4.56;66.03
4024;BME280;2026;51.002;13.668;2024-01-27T15:46:14;100884.84;;;4.39;66.29
4024;BME280;2026;51.002;13.668;2024-01-27T15:51:18;100897.34;;;4.36;66.94
4024;BME280;2026;51.002;13.668;2024-01-27T15:56:21;100901.75;;;4.35;66.76
4024;BME280;2026;51.002;13.668;2024-01-27T16:01:24;100912.06;;;4.37;66.58
4024;BME280;2026;51.002;13.668;2024-01-27T16:06:29;100907.66;;;4.26;66.79
4024;BME280;2026;51.002;13.668;2024-01-27T16:11:32;100915.28;;;4.29;66.61
4024;BME280;2026;51.002;13.668;2024-01-27T16:16:35;100923.78;;;4.20;66.86
4024;BME280;2026;51.002;13.668;2024-01-27T16:21:39;100925.13;;;4.25;66.96
4024;BME280;2026;51.002;13.668;2024-01-27T16:26:42;100920.19;;;4.10;66.91
4024;BME280;2026;51.002;13.668;2024-01-27T16:31:45;100923.72;;;4.09;67.19
4024;BME280;2026;51.002;13.668;2024-01-27T16:36:49;100929.59;;;4.12;66.75
4024;BME280;2026;51.002;13.668;2024-01-27T16:41:52;100931.56;;;3.97;67.74
4024;BME280;2026;51.002;13.668;2024-01-27T16:46:55;100937.88;;;3.82;68.15
4024;BME280;2026;51.002;13.668;2024-01-27T16:51:59;100936.50;;;3.89;68.07
4024;BME280;2026;51.002;13.668;2024-01-27T16:57:03;100947.97;;;3.99;67.96
4024;BME280;2026;51.002;13.668;2024-01-27T17:02:07;100941.78;;;3.76;68.23
4024;BME280;2026;51.002;13.668;2024-01-27T17:07:12;100949.69;;;3.87;67.80
4024;BME280;2026;51.002;13.668;2024-01-27T17:12:15;100952.84;;;3.80;68.18
4024;BME280;2026;51.002;13.668;2024-01-27T17:17:18;100955.88;;;3.74;68.70
4024;BME280;2026;51.002;13.668;2024-01-27T17:22:22;100959.59;;;3.58;69.41
4024;BME280;2026;51.002;13.668;2024-01-27T17:27:25;100963.94;;;3.70;68.91
4024;BME280;2026;51.002;13.668;2024-01-27T17:32:29;100969.22;;;3.58;69.37
4024;BME280;2026;51.002;13.668;2024-01-27T17:37:33;100971.16;;;3.67;68.77
4024;BME280;2026;51.002;13.668;2024-01-27T17:42:38;100965.03;;;3.55;69.36
4024;BME280;2026;51.002;13.668;2024-01-27T17:47:42;100974.66;;;3.55;69.39
4024;BME280;2026;51.002;13.668;2024-01-27T17:52:48;100970.25;;;3.55;69.30
4024;BME280;2026;51.002;13.668;2024-01-27T17:57:51;100983.31;;;3.55;69.75
4024;BME280;2026;51.002;13.668;2024-01-27T18:02:54;100978.00;;;3.44;69.87
4024;BME280;2026;51.002;13.668;2024-01-27T18:07:58;100982.19;;;3.46;69.56
4024;BME280;2026;51.002;13.668;2024-01-27T18:13:01;100984.69;;;3.48;69.37
4024;BME280;2026;51.002;13.668;2024-01-27T18:18:04;100990.66;;;3.50;69.55
4024;BME280;2026;51.002;13.668;2024-01-27T18:23:09;100990.34;;;3.42;69.65
4024;BME280;2026;51.002;13.668;2024-01-27T18:28:12;100991.69;;;3.47;69.37
4024;BME280;2026;51.002;13.668;2024-01-27T18:33:15;100989.22;;;3.33;69.71
4024;BME280;2026;51.002;13.668;2024-01-27T18:38:22;100988.69;;;3.28;69.72
4024;BME280;2026;51.002;13.668;2024-01-27T18:43:26;101008.94;;;3.37;69.62
4024;BME280;2026;51.002;13.668;2024-01-27T18:48:29;101000.06;;;3.27;69.80
4024;BME280;2026;51.002;13.668;2024-01-27T18:53:34;101009.16;;;3.34;69.11
4024;BME280;2026;51.002;13.668;2024-01-27T18:58:37;101012.72;;;3.07;70.39
4024;BME280;2026;51.002;13.668;2024-01-27T19:03:40;101010.19;;;3.06;70.29
4024;BME280;2026;51.002;13.668;2024-01-27T19:08:44;101005.50;;;2.98;70.55
4024;BME280;2026;51.002;13.668;2024-01-27T19:13:47;101009.00;;;2.71;71.45
4024;BME280;2026;51.002;13.668;2024-01-27T19:18:50;101010.81;;;2.84;71.09
4024;BME280;2026;51.002;13.668;2024-01-27T19:23:55;101003.75;;;2.58;71.89
4024;BME280;2026;51.002;13.668;2024-01-27T19:28:58;101015.16;;;2.70;71.32
4024;BME280;2026;51.002;13.668;2024-01-27T19:34:02;101013.19;;;2.74;71.03
4024;BME280;2026;51.002;13.668;2024-01-27T19:39:06;101022.19;;;2.95;70.30
4024;BME280;2026;51.002;13.668;2024-01-27T19:44:10;101035.84;;;2.86;70.37
4024;BME280;2026;51.002;13.668;2024-01-27T19:49:12;101052.03;;;2.79;70.59
4024;BME280;2026;51.002;13.668;2024-01-27T19:54:17;101067.53;;;2.94;70.03
4024;BME280;2026;51.002;13.668;2024-01-27T19:59:20;101064.91;;;2.94;70.18
4024;BME280;2026;51.002;13.668;2024-01-27T20:04:23;101068.25;;;2.84;70.02
4024;BME280;2026;51.002;13.668;2024-01-27T20:09:28;101068.25;;;2.56;71.23
4024;BME280;2026;51.002;13.668;2024-01-27T20:14:31;101068.00;;;2.74;70.53
4024;BME280;2026;51.002;13.668;2024-01-27T20:19:34;101073.03;;;2.50;71.14
4024;BME280;2026;51.002;13.668;2024-01-27T20:24:39;101066.69;;;2.54;70.89
4024;BME280;2026;51.002;13.668;2024-01-27T20:29:42;101055.84;;;2.33;71.08
4024;BME280;2026;51.002;13.668;2024-01-27T20:34:45;101067.69;;;2.51;70.53
4024;BME280;2026;51.002;13.668;2024-01-27T20:39:49;101059.00;;;2.65;69.50
4024;BME280;2026;51.002;13.668;2024-01-27T20:44:52;101068.81;;;2.62;69.57
4024;BME280;2026;51.002;13.668;2024-01-27T20:49:55;101075.63;;;2.50;70.13
4024;BME280;2026;51.002;13.668;2024-01-27T20:55:01;101079.75;;;2.39;70.64
4024;BME280;2026;51.002;13.668;2024-01-27T21:00:05;101088.69;;;2.50;69.94
4024;BME280;2026;51.002;13.668;2024-01-27T21:05:08;101091.72;;;2.29;70.42
4024;BME280;2026;51.002;13.668;2024-01-27T21:10:13;101091.75;;;2.15;71.22
4024;BME280;2026;51.002;13.668;2024-01-27T21:15:16;101090.91;;;2.00;71.66
4024;BME280;2026;51.002;13.668;2024-01-27T21:20:19;101093.25;;;2.19;71.08
4024;BME280;2026;51.002;13.668;2024-01-27T21:25:23;101092.53;;;2.44;69.88
4024;BME280;2026;51.002;13.668;2024-01-27T21:30:26;101094.06;;;2.19;70.74
4024;BME280;2026;51.002;13.668;2024-01-27T21:35:31;101098.00;;;2.12;70.99
4024;BME280;2026;51.002;13.668;2024-01-27T21:40:37;101092.19;;;2.21;70.45
4024;BME280;2026;51.002;13.668;2024-01-27T21:45:43;101082.13;;;2.30;70.21
4024;BME280;2026;51.002;13.668;2024-01-27T21:50:46;101095.16;;;2.30;75.01
4024;BME280;2026;51.002;13.668;2024-01-27T21:55:51;101089.34;;;1.97;72.92
4024;BME280;2026;51.002;13.668;2024-01-27T22:00:54;101080.25;;;1.76;72.82
4024;BME280;2026;51.002;13.668;2024-01-27T22:05:57;101090.03;;;1.72;72.77
4024;BME280;2026;51.002;13.668;2024-01-27T22:11:06;101090.84;;;1.87;72.00
4024;BME280;2026;51.002;13.668;2024-01-27T22:16:09;101104.16;;;1.68;72.39
4024;BME280;2026;51.002;13.668;2024-01-27T22:21:12;101100.72;;;1.68;72.32
4024;BME280;2026;51.002;13.668;2024-01-27T22:26:16;101090.84;;;1.58;73.05
4024;BME280;2026;51.002;13.668;2024-01-27T22:31:20;101083.84;;;1.59;72.91
4024;BME280;2026;51.002;13.668;2024-01-27T22:36:23;101090.63;;;1.47;73.19
4024;BME280;2026;51.002;13.668;2024-01-27T22:41:27;101092.50;;;1.45;73.41
4024;BME280;2026;51.002;13.668;2024-01-27T22:46:30;101092.28;;;1.34;73.34
4024;BME280;2026;51.002;13.668;2024-01-27T22:51:33;101088.00;;;1.18;73.95
4024;BME280;2026;51.002;13.668;2024-01-27T22:56:38;101085.28;;;1.20;73.48
4024;BME280;2026;51.002;13.668;2024-01-27T23:01:41;101079.63;;;1.13;74.03
4024;BME280;2026;51.002;13.668;2024-01-27T23:06:44;101079.75;;;1.40;73.05
4024;BME280;2026;51.002;13.668;2024-01-27T23:11:48;101074.59;;;1.10;74.42
4024;BME280;2026;51.002;13.668;2024-01-27T23:16:51;101073.13;;;0.60;76.55
4024;BME280;2026;51.002;13.668;2024-01-27T23:21:54;101064.19;;;0.64;75.77
4024;BME280;2026;51.002;13.668;2024-01-27T23:26:58;101058.25;;;0.46;76.66
4024;BME280;2026;51.002;13.668;2024-01-27T23:32:02;101051.63;;;0.56;76.16
4024;BME280;2026;51.002;13.668;2024-01-27T23:37:05;101050.88;;;0.38;76.58
4024;BME280;2026;51.002;13.668;2024-01-27T23:42:10;101050.31;;;0.33;77.53
4024;BME280;2026;51.002;13.668;2024-01-27T23:47:13;101055.75;;;0.44;76.73
4024;BME280;2026;51.002;13.668;2024-01-27T23:52:16;101057.00;;;0.53;76.31
4024;BME280;2026;51.002;13.668;2024-01-27T23:57:20;101061.03;;;0.43;76.79
